sensor_id;sensor_type;location;lat;lon;timestamp;pressure;altitude;pressure_sealevel;temperature;humidity
31911;BME280;18457;52.432;16.914;2023-02-19T00:00:27;100187.55;;;4.52;99.98
31911;BME280;18457;52.432;16.914;2023-02-19T00:03:19;100181.48;;;4.45;99.76
31911;BME280;18457;52.432;16.914;2023-02-19T00:05:51;100182.95;;;4.35;99.93
31911;BME280;18457;52.432;16.914;2023-02-19T00:08:22;100184.01;;;4.43;100.00
31911;BME280;18457;52.432;16.914;2023-02-19T00:10:54;100177.20;;;4.44;99.33
31911;BME280;18457;52.432;16.914;2023-02-19T00:13:30;100177.21;;;4.41;98.88
31911;BME280;18457;52.432;16.914;2023-02-19T00:16:08;100174.71;;;4.39;98.83
31911;BME280;18457;52.432;16.914;2023-02-19T00:18:40;100173.81;;;4.41;98.10
31911;BME280;18457;52.432;16.914;2023-02-19T00:21:12;100172.57;;;4.38;98.20
31911;BME280;18457;52.432;16.914;2023-02-19T00:23:43;100174.55;;;4.35;98.28
31911;BME280;18457;52.432;16.914;2023-02-19T00:26:19;100175.96;;;4.39;98.43
31911;BME280;18457;52.432;16.914;2023-02-19T00:28:54;100175.09;;;4.36;98.43
31911;BME280;18457;52.432;16.914;2023-02-19T00:31:27;100176.70;;;4.34;98.51
31911;BME280;18457;52.432;16.914;2023-02-19T00:34:04;100180.97;;;4.40;98.22
31911;BME280;18457;52.432;16.914;2023-02-19T00:36:38;100181.11;;;4.50;97.85
31911;BME280;18457;52.432;16.914;2023-02-19T00:39:13;100175.21;;;4.54;97.25
31911;BME280;18457;52.432;16.914;2023-02-19T00:41:45;100178.05;;;4.56;97.33
31911;BME280;18457;52.432;16.914;2023-02-19T00:44:17;100179.87;;;4.50;97.35
31911;BME280;18457;52.432;16.914;2023-02-19T00:46:51;100179.16;;;4.47;97.68
31911;BME280;18457;52.432;16.914;2023-02-19T00:49:23;100176.84;;;4.45;96.67
31911;BME280;18457;52.432;16.914;2023-02-19T00:51:55;100180.94;;;4.48;96.25
31911;BME280;18457;52.432;16.914;2023-02-19T00:54:27;100177.36;;;4.50;95.87
31911;BME280;18457;52.432;16.914;2023-02-19T00:57:01;100174.52;;;4.47;95.98
31911;BME280;18457;52.432;16.914;2023-02-19T00:59:33;100172.17;;;4.49;95.77
31911;BME280;18457;52.432;16.914;2023-02-19T01:02:06;100180.05;;;4.52;95.52
31911;BME280;18457;52.432;16.914;2023-02-19T01:04:38;100176.98;;;4.51;95.59
31911;BME280;18457;52.432;16.914;2023-02-19T01:07:10;100183.09;;;4.49;95.49
31911;BME280;18457;52.432;16.914;2023-02-19T01:09:42;100182.91;;;4.48;95.80
31911;BME280;18457;52.432;16.914;2023-02-19T01:12:14;100179.89;;;4.44;95.73
31911;BME280;18457;52.432;16.914;2023-02-19T01:14:46;100177.92;;;4.42;95.69
31911;BME280;18457;52.432;16.914;2023-02-19T01:17:17;100167.38;;;4.40;95.65
31911;BME280;18457;52.432;16.914;2023-02-19T01:19:49;100157.39;;;4.34;95.97
31911;BME280;18457;52.432;16.914;2023-02-19T01:22:21;100159.34;;;4.38;97.00
31911;BME280;18457;52.432;16.914;2023-02-19T01:24:54;100155.91;;;4.41;96.55
31911;BME280;18457;52.432;16.914;2023-02-19T01:27:26;100155.23;;;4.36;96.33
31911;BME280;18457;52.432;16.914;2023-02-19T01:29:57;100150.60;;;4.31;96.67
31911;BME280;18457;52.432;16.914;2023-02-19T01:32:29;100153.10;;;4.32;96.95
31911;BME280;18457;52.432;16.914;2023-02-19T01:35:01;100152.03;;;4.31;97.06
31911;BME280;18457;52.432;16.914;2023-02-19T01:37:34;100139.85;;;4.37;96.96
31911;BME280;18457;52.432;16.914;2023-02-19T01:40:08;100135.90;;;4.43;96.70
31911;BME280;18457;52.432;16.914;2023-02-19T01:42:43;100138.41;;;4.38;96.54
31911;BME280;18457;52.432;16.914;2023-02-19T01:45:23;100143.11;;;4.26;97.01
31911;BME280;18457;52.432;16.914;2023-02-19T01:48:00;100143.61;;;4.34;97.16
31911;BME280;18457;52.432;16.914;2023-02-19T01:50:37;100146.27;;;4.42;96.84
31911;BME280;18457;52.432;16.914;2023-02-19T01:53:14;100140.73;;;4.39;96.38
31911;BME280;18457;52.432;16.914;2023-02-19T01:55:49;100142.55;;;4.34;96.43
31911;BME280;18457;52.432;16.914;2023-02-19T01:58:25;100140.39;;;4.35;96.53
31911;BME280;18457;52.432;16.914;2023-02-19T02:00:59;100131.44;;;4.39;96.09
31911;BME280;18457;52.432;16.914;2023-02-19T02:03:34;100125.36;;;4.41;95.97
31911;BME280;18457;52.432;16.914;2023-02-19T02:06:13;100125.91;;;4.34;96.17
31911;BME280;18457;52.432;16.914;2023-02-19T02:08:50;100120.04;;;4.27;96.39
31911;BME280;18457;52.432;16.914;2023-02-19T02:11:44;100111.63;;;4.29;96.66
31911;BME280;18457;52.432;16.914;2023-02-19T02:14:20;100102.86;;;4.29;97.15
31911;BME280;18457;52.432;16.914;2023-02-19T02:16:59;100101.21;;;4.40;97.00
31911;BME280;18457;52.432;16.914;2023-02-19T02:20:00;100098.22;;;4.33;97.16
31911;BME280;18457;52.432;16.914;2023-02-19T02:22:37;100095.91;;;4.28;97.30
31911;BME280;18457;52.432;16.914;2023-02-19T02:25:35;100094.81;;;4.30;97.58
31911;BME280;18457;52.432;16.914;2023-02-19T02:28:38;100090.72;;;4.28;97.62
31911;BME280;18457;52.432;16.914;2023-02-19T02:31:19;100088.77;;;4.25;97.95
31911;BME280;18457;52.432;16.914;2023-02-19T02:33:56;100087.86;;;4.25;97.94
31911;BME280;18457;52.432;16.914;2023-02-19T02:36:33;100090.36;;;4.26;98.05
31911;BME280;18457;52.432;16.914;2023-02-19T02:39:10;100073.91;;;4.27;98.27
31911;BME280;18457;52.432;16.914;2023-02-19T02:41:45;100079.10;;;4.29;98.35
31911;BME280;18457;52.432;16.914;2023-02-19T02:44:41;100079.48;;;4.21;98.70
31911;BME280;18457;52.432;16.914;2023-02-19T02:47:40;100078.04;;;4.22;99.12
31911;BME280;18457;52.432;16.914;2023-02-19T02:50:17;100073.42;;;4.18;99.07
31911;BME280;18457;52.432;16.914;2023-02-19T02:52:54;100077.73;;;4.12;99.74
31911;BME280;18457;52.432;16.914;2023-02-19T02:55:45;100067.00;;;4.12;99.88
31911;BME280;18457;52.432;16.914;2023-02-19T02:58:21;100063.02;;;4.21;99.76
31911;BME280;18457;52.432;16.914;2023-02-19T03:00:56;100059.95;;;4.32;99.50
31911;BME280;18457;52.432;16.914;2023-02-19T03:03:49;100059.95;;;4.28;99.24
31911;BME280;18457;52.432;16.914;2023-02-19T03:06:29;100056.77;;;4.24;99.18
31911;BME280;18457;52.432;16.914;2023-02-19T03:09:08;100058.02;;;4.22;99.47
31911;BME280;18457;52.432;16.914;2023-02-19T03:11:44;100055.34;;;4.24;99.76
31911;BME280;18457;52.432;16.914;2023-02-19T03:14:38;100056.36;;;4.33;99.27
31911;BME280;18457;52.432;16.914;2023-02-19T03:17:33;100055.29;;;4.34;98.98
31911;BME280;18457;52.432;16.914;2023-02-19T03:20:43;100050.11;;;4.33;99.35
31911;BME280;18457;52.432;16.914;2023-02-19T03:23:18;100047.45;;;4.30;99.40
31911;BME280;18457;52.432;16.914;2023-02-19T03:25:51;100039.58;;;4.29;99.75
31911;BME280;18457;52.432;16.914;2023-02-19T03:28:44;100038.52;;;4.27;99.95
31911;BME280;18457;52.432;16.914;2023-02-19T03:31:39;100025.09;;;4.32;99.91
31911;BME280;18457;52.432;16.914;2023-02-19T03:34:17;100023.51;;;4.28;100.00
31911;BME280;18457;52.432;16.914;2023-02-19T03:36:55;100023.48;;;4.32;100.00
31911;BME280;18457;52.432;16.914;2023-02-19T03:39:28;100023.13;;;4.30;100.00
31911;BME280;18457;52.432;16.914;2023-02-19T03:42:07;100023.84;;;4.30;100.00
31911;BME280;18457;52.432;16.914;2023-02-19T03:44:48;100024.55;;;4.34;100.00
31911;BME280;18457;52.432;16.914;2023-02-19T03:47:26;100020.43;;;4.32;100.00
31911;BME280;18457;52.432;16.914;2023-02-19T03:50:03;100015.02;;;4.39;100.00
31911;BME280;18457;52.432;16.914;2023-02-19T03:52:40;100009.63;;;4.46;99.88
31911;BME280;18457;52.432;16.914;2023-02-19T03:55:18;100009.10;;;4.45;99.59
31911;BME280;18457;52.432;16.914;2023-02-19T03:57:57;100009.89;;;4.30;99.87
31911;BME280;18457;52.432;16.914;2023-02-19T04:00:39;100013.25;;;4.38;100.00
31911;BME280;18457;52.432;16.914;2023-02-19T04:03:16;100009.84;;;4.40;99.87
31911;BME280;18457;52.432;16.914;2023-02-19T04:05:54;100009.81;;;4.44;99.50
31911;BME280;18457;52.432;16.914;2023-02-19T04:08:31;100011.75;;;4.52;99.27
31911;BME280;18457;52.432;16.914;2023-02-19T04:11:06;100017.34;;;4.42;99.19
31911;BME280;18457;52.432;16.914;2023-02-19T04:13:43;100024.31;;;4.43;99.12
31911;BME280;18457;52.432;16.914;2023-02-19T04:16:19;100024.84;;;4.43;98.87
31911;BME280;18457;52.432;16.914;2023-02-19T04:18:54;100030.83;;;4.28;99.42
31911;BME280;18457;52.432;16.914;2023-02-19T04:21:29;100035.65;;;4.29;99.80
31911;BME280;18457;52.432;16.914;2023-02-19T04:24:05;100036.91;;;4.26;99.50
31911;BME280;18457;52.432;16.914;2023-02-19T04:26:37;100036.57;;;4.20;99.82
31911;BME280;18457;52.432;16.914;2023-02-19T04:29:09;100043.01;;;4.21;99.91
31911;BME280;18457;52.432;16.914;2023-02-19T04:31:41;100052.48;;;4.19;99.96
31911;BME280;18457;52.432;16.914;2023-02-19T04:34:13;100049.48;;;4.13;100.00
31911;BME280;18457;52.432;16.914;2023-02-19T04:36:45;100058.23;;;4.16;100.00
31911;BME280;18457;52.432;16.914;2023-02-19T04:39:17;100056.63;;;4.13;100.00
31911;BME280;18457;52.432;16.914;2023-02-19T04:41:49;100060.20;;;4.15;100.00
31911;BME280;18457;52.432;16.914;2023-02-19T04:44:21;100048.22;;;4.17;99.94
31911;BME280;18457;52.432;16.914;2023-02-19T04:46:53;100043.38;;;4.20;99.61
31911;BME280;18457;52.432;16.914;2023-02-19T04:49:25;100044.64;;;4.18;99.12
31911;BME280;18457;52.432;16.914;2023-02-19T04:51:57;100050.37;;;4.15;98.86
31911;BME280;18457;52.432;16.914;2023-02-19T04:54:29;100056.61;;;4.16;98.30
31911;BME280;18457;52.432;16.914;2023-02-19T04:57:00;100063.27;;;4.06;98.43
31911;BME280;18457;52.432;16.914;2023-02-19T04:59:32;100066.86;;;4.02;98.57
31911;BME280;18457;52.432;16.914;2023-02-19T05:02:04;100067.77;;;3.93;98.75
31911;BME280;18457;52.432;16.914;2023-02-19T05:04:36;100068.85;;;3.98;99.05
31911;BME280;18457;52.432;16.914;2023-02-19T05:07:08;100071.11;;;4.10;98.41
31911;BME280;18457;52.432;16.914;2023-02-19T05:09:40;100067.38;;;4.06;98.14
31911;BME280;18457;52.432;16.914;2023-02-19T05:12:11;100064.17;;;4.05;98.38
31911;BME280;18457;52.432;16.914;2023-02-19T05:14:43;100063.08;;;4.10;98.02
31911;BME280;18457;52.432;16.914;2023-02-19T05:17:15;100061.14;;;4.06;97.64
31911;BME280;18457;52.432;16.914;2023-02-19T05:19:46;100062.89;;;4.09;97.56
31911;BME280;18457;52.432;16.914;2023-02-19T05:22:18;100059.36;;;4.00;98.04
31911;BME280;18457;52.432;16.914;2023-02-19T05:24:50;100059.38;;;3.95;98.22
31911;BME280;18457;52.432;16.914;2023-02-19T05:27:22;100059.38;;;3.96;98.00
31911;BME280;18457;52.432;16.914;2023-02-19T05:29:54;100064.36;;;3.99;97.69
31911;BME280;18457;52.432;16.914;2023-02-19T05:32:26;100067.21;;;4.05;97.23
31911;BME280;18457;52.432;16.914;2023-02-19T05:34:58;100068.63;;;4.08;96.78
31911;BME280;18457;52.432;16.914;2023-02-19T05:37:30;100066.51;;;3.99;96.70
31911;BME280;18457;52.432;16.914;2023-02-19T05:40:02;100064.89;;;4.06;96.86
31911;BME280;18457;52.432;16.914;2023-02-19T05:45:07;100065.21;;;4.11;96.23
31911;BME280;18457;52.432;16.914;2023-02-19T05:47:39;100066.45;;;4.14;95.58
31911;BME280;18457;52.432;16.914;2023-02-19T05:50:10;100064.14;;;4.13;95.43
31911;BME280;18457;52.432;16.914;2023-02-19T05:52:42;100066.33;;;4.04;95.64
31911;BME280;18457;52.432;16.914;2023-02-19T05:55:14;100069.38;;;3.96;95.85
31911;BME280;18457;52.432;16.914;2023-02-19T05:57:47;100073.84;;;3.95;95.87
31911;BME280;18457;52.432;16.914;2023-02-19T06:00:17;100076.70;;;3.95;95.71
31911;BME280;18457;52.432;16.914;2023-02-19T06:02:50;100074.02;;;3.94;95.79
31911;BME280;18457;52.432;16.914;2023-02-19T06:05:22;100075.27;;;3.93;95.79
31911;BME280;18457;52.432;16.914;2023-02-19T06:07:54;100072.10;;;3.85;95.95
31911;BME280;18457;52.432;16.914;2023-02-19T06:10:25;100070.30;;;3.91;96.33
31911;BME280;18457;52.432;16.914;2023-02-19T06:12:57;100070.30;;;3.86;96.08
31911;BME280;18457;52.432;16.914;2023-02-19T06:15:29;100072.27;;;3.84;96.28
31911;BME280;18457;52.432;16.914;2023-02-19T06:18:01;100066.20;;;3.82;96.33
31911;BME280;18457;52.432;16.914;2023-02-19T06:20:33;100064.94;;;3.87;96.58
31911;BME280;18457;52.432;16.914;2023-02-19T06:23:05;100071.17;;;3.92;96.62
31911;BME280;18457;52.432;16.914;2023-02-19T06:25:37;100074.74;;;3.97;96.68
31911;BME280;18457;52.432;16.914;2023-02-19T06:28:09;100078.65;;;4.03;96.41
31911;BME280;18457;52.432;16.914;2023-02-19T06:30:40;100082.77;;;4.04;96.11
31911;BME280;18457;52.432;16.914;2023-02-19T06:33:12;100084.91;;;4.00;96.34
31911;BME280;18457;52.432;16.914;2023-02-19T06:35:44;100090.29;;;3.98;96.55
31911;BME280;18457;52.432;16.914;2023-02-19T06:38:16;100092.96;;;3.96;96.76
31911;BME280;18457;52.432;16.914;2023-02-19T06:40:48;100096.73;;;3.94;96.77
31911;BME280;18457;52.432;16.914;2023-02-19T06:43:20;100099.56;;;4.04;96.85
31911;BME280;18457;52.432;16.914;2023-02-19T06:45:53;100102.23;;;4.07;96.54
31911;BME280;18457;52.432;16.914;2023-02-19T06:48:29;100106.17;;;4.03;96.38
31911;BME280;18457;52.432;16.914;2023-02-19T06:51:02;100110.31;;;3.95;96.82
31911;BME280;18457;52.432;16.914;2023-02-19T06:53:33;100116.55;;;3.94;97.04
31911;BME280;18457;52.432;16.914;2023-02-19T06:56:18;100116.38;;;3.97;97.01
31911;BME280;18457;52.432;16.914;2023-02-19T06:58:52;100119.08;;;3.91;96.98
31911;BME280;18457;52.432;16.914;2023-02-19T07:01:25;100118.16;;;3.98;97.01
31911;BME280;18457;52.432;16.914;2023-02-19T07:03:57;100119.58;;;4.02;96.51
31911;BME280;18457;52.432;16.914;2023-02-19T07:06:30;100116.90;;;4.02;96.13
31911;BME280;18457;52.432;16.914;2023-02-19T07:09:03;100116.91;;;3.96;96.25
31911;BME280;18457;52.432;16.914;2023-02-19T07:11:37;100117.80;;;3.98;96.67
31911;BME280;18457;52.432;16.914;2023-02-19T07:14:14;100117.96;;;4.04;96.54
31911;BME280;18457;52.432;16.914;2023-02-19T07:16:46;100117.23;;;4.11;96.18
31911;BME280;18457;52.432;16.914;2023-02-19T07:19:18;100118.13;;;4.10;95.87
31911;BME280;18457;52.432;16.914;2023-02-19T07:21:50;100122.95;;;4.07;95.99
31911;BME280;18457;52.432;16.914;2023-02-19T07:24:22;100122.58;;;4.16;95.71
31911;BME280;18457;52.432;16.914;2023-02-19T07:26:54;100127.91;;;4.22;95.81
31911;BME280;18457;52.432;16.914;2023-02-19T07:29:25;100132.95;;;4.13;95.84
31911;BME280;18457;52.432;16.914;2023-02-19T07:31:57;100134.55;;;4.15;95.90
31911;BME280;18457;52.432;16.914;2023-02-19T07:34:29;100134.20;;;4.14;95.90
31911;BME280;18457;52.432;16.914;2023-02-19T07:37:01;100136.67;;;4.16;95.81
31911;BME280;18457;52.432;16.914;2023-02-19T07:39:33;100137.58;;;4.21;95.74
31911;BME280;18457;52.432;16.914;2023-02-19T07:42:05;100131.13;;;4.26;95.43
31911;BME280;18457;52.432;16.914;2023-02-19T07:44:37;100132.75;;;4.24;95.21
31911;BME280;18457;52.432;16.914;2023-02-19T07:47:09;100140.61;;;4.18;95.49
31911;BME280;18457;52.432;16.914;2023-02-19T07:49:41;100141.33;;;4.20;95.62
31911;BME280;18457;52.432;16.914;2023-02-19T07:52:13;100140.62;;;4.20;95.51
31911;BME280;18457;52.432;16.914;2023-02-19T07:54:45;100145.45;;;4.22;95.75
31911;BME280;18457;52.432;16.914;2023-02-19T07:57:17;100149.18;;;4.30;95.55
31911;BME280;18457;52.432;16.914;2023-02-19T07:59:50;100150.60;;;4.28;95.04
31911;BME280;18457;52.432;16.914;2023-02-19T08:02:22;100152.77;;;4.25;95.02
31911;BME280;18457;52.432;16.914;2023-02-19T08:05:12;100153.98;;;4.30;95.19
31911;BME280;18457;52.432;16.914;2023-02-19T08:07:43;100152.55;;;4.35;94.85
31911;BME280;18457;52.432;16.914;2023-02-19T08:10:16;100156.30;;;4.37;94.58
31911;BME280;18457;52.432;16.914;2023-02-19T08:13:08;100159.86;;;4.39;94.29
31911;BME280;18457;52.432;16.914;2023-02-19T08:15:53;100163.09;;;4.41;93.82
31911;BME280;18457;52.432;16.914;2023-02-19T08:18:37;100172.73;;;4.46;93.81
31911;BME280;18457;52.432;16.914;2023-02-19T08:21:10;100173.08;;;4.46;93.28
31911;BME280;18457;52.432;16.914;2023-02-19T08:23:42;100174.70;;;4.42;93.09
31911;BME280;18457;52.432;16.914;2023-02-19T08:26:14;100179.48;;;4.53;93.06
31911;BME280;18457;52.432;16.914;2023-02-19T08:28:46;100181.63;;;4.58;92.80
31911;BME280;18457;52.432;16.914;2023-02-19T08:31:17;100191.11;;;4.59;91.84
31911;BME280;18457;52.432;16.914;2023-02-19T08:33:50;100190.57;;;4.59;91.86
31911;BME280;18457;52.432;16.914;2023-02-19T08:36:23;100191.66;;;4.57;91.39
31911;BME280;18457;52.432;16.914;2023-02-19T08:38:55;100193.60;;;4.63;91.04
31911;BME280;18457;52.432;16.914;2023-02-19T08:41:27;100197.69;;;4.69;90.42
31911;BME280;18457;52.432;16.914;2023-02-19T08:43:58;100203.96;;;4.65;89.81
31911;BME280;18457;52.432;16.914;2023-02-19T08:46:30;100209.68;;;4.64;89.92
31911;BME280;18457;52.432;16.914;2023-02-19T08:49:05;100210.56;;;4.71;89.60
31911;BME280;18457;52.432;16.914;2023-02-19T08:51:38;100220.58;;;4.72;87.75
31911;BME280;18457;52.432;16.914;2023-02-19T08:54:09;100223.79;;;4.74;87.93
31911;BME280;18457;52.432;16.914;2023-02-19T08:56:41;100232.18;;;4.76;87.97
31911;BME280;18457;52.432;16.914;2023-02-19T08:59:13;100235.62;;;4.68;87.61
31911;BME280;18457;52.432;16.914;2023-02-19T09:01:45;100237.41;;;4.68;87.71
31911;BME280;18457;52.432;16.914;2023-02-19T09:04:17;100234.53;;;4.71;87.29
31911;BME280;18457;52.432;16.914;2023-02-19T09:06:49;100238.30;;;4.68;86.73
31911;BME280;18457;52.432;16.914;2023-02-19T09:09:21;100240.44;;;4.73;86.62
31911;BME280;18457;52.432;16.914;2023-02-19T09:11:53;100243.83;;;4.75;85.21
31911;BME280;18457;52.432;16.914;2023-02-19T09:14:25;100246.33;;;4.77;84.93
31911;BME280;18457;52.432;16.914;2023-02-19T09:16:56;100245.41;;;4.81;84.70
31911;BME280;18457;52.432;16.914;2023-02-19T09:19:29;100247.20;;;4.84;84.29
31911;BME280;18457;52.432;16.914;2023-02-19T09:22:01;100252.57;;;4.81;83.62
31911;BME280;18457;52.432;16.914;2023-02-19T09:24:34;100251.29;;;4.87;83.12
31911;BME280;18457;52.432;16.914;2023-02-19T09:27:06;100261.48;;;4.96;82.74
31911;BME280;18457;52.432;16.914;2023-02-19T09:29:37;100267.70;;;5.06;82.49
31911;BME280;18457;52.432;16.914;2023-02-19T09:32:10;100274.84;;;5.10;81.50
31911;BME280;18457;52.432;16.914;2023-02-19T09:34:42;100278.44;;;5.05;80.50
31911;BME280;18457;52.432;16.914;2023-02-19T09:37:14;100289.18;;;5.05;79.90
31911;BME280;18457;52.432;16.914;2023-02-19T09:39:46;100292.59;;;5.05;80.45
31911;BME280;18457;52.432;16.914;2023-02-19T09:42:19;100295.42;;;5.09;80.63
31911;BME280;18457;52.432;16.914;2023-02-19T09:44:58;100301.71;;;5.05;80.05
31911;BME280;18457;52.432;16.914;2023-02-19T09:47:32;100298.85;;;5.06;79.50
31911;BME280;18457;52.432;16.914;2023-02-19T09:50:08;100302.73;;;5.18;79.02
31911;BME280;18457;52.432;16.914;2023-02-19T09:52:41;100309.69;;;5.26;78.63
31911;BME280;18457;52.432;16.914;2023-02-19T09:55:18;100314.14;;;5.31;77.76
31911;BME280;18457;52.432;16.914;2023-02-19T09:57:54;100311.84;;;5.23;76.48
31911;BME280;18457;52.432;16.914;2023-02-19T10:00:30;100314.33;;;5.26;77.44
31911;BME280;18457;52.432;16.914;2023-02-19T10:03:08;100321.80;;;5.40;77.67
31911;BME280;18457;52.432;16.914;2023-02-19T10:05:42;100333.25;;;5.43;77.73
31911;BME280;18457;52.432;16.914;2023-02-19T10:08:17;100328.83;;;5.31;76.99
31911;BME280;18457;52.432;16.914;2023-02-19T10:10:49;100336.02;;;5.23;76.08
31911;BME280;18457;52.432;16.914;2023-02-19T10:13:23;100341.73;;;5.28;76.19
31911;BME280;18457;52.432;16.914;2023-02-19T10:15:59;100340.30;;;5.28;74.19
31911;BME280;18457;52.432;16.914;2023-02-19T10:18:39;100344.75;;;5.35;73.15
31911;BME280;18457;52.432;16.914;2023-02-19T10:21:16;100347.60;;;5.39;72.84
31911;BME280;18457;52.432;16.914;2023-02-19T10:23:52;100351.37;;;5.36;72.81
31911;BME280;18457;52.432;16.914;2023-02-19T10:26:26;100350.48;;;5.36;73.30
31911;BME280;18457;52.432;16.914;2023-02-19T10:29:01;100365.36;;;5.31;71.24
31911;BME280;18457;52.432;16.914;2023-02-19T10:31:32;100369.99;;;5.39;70.88
31911;BME280;18457;52.432;16.914;2023-02-19T10:34:04;100370.50;;;5.45;71.01
31911;BME280;18457;52.432;16.914;2023-02-19T10:36:48;100372.65;;;5.46;69.94
31911;BME280;18457;52.432;16.914;2023-02-19T10:39:38;100374.58;;;5.56;69.39
31911;BME280;18457;52.432;16.914;2023-02-19T10:42:20;100375.09;;;5.64;69.57
31911;BME280;18457;52.432;16.914;2023-02-19T10:44:55;100381.18;;;5.62;69.85
31911;BME280;18457;52.432;16.914;2023-02-19T10:47:32;100388.55;;;5.55;69.62
31911;BME280;18457;52.432;16.914;2023-02-19T10:50:05;100383.19;;;5.55;69.75
31911;BME280;18457;52.432;16.914;2023-02-19T10:52:38;100386.05;;;5.55;69.89
31911;BME280;18457;52.432;16.914;2023-02-19T10:55:26;100383.67;;;5.67;69.51
31911;BME280;18457;52.432;16.914;2023-02-19T10:58:13;100375.79;;;6.04;67.95
31911;BME280;18457;52.432;16.914;2023-02-19T11:01:10;100381.77;;;6.22;66.83
31911;BME280;18457;52.432;16.914;2023-02-19T11:03:43;100384.73;;;6.57;65.49
31911;BME280;18457;52.432;16.914;2023-02-19T11:06:14;100386.27;;;6.66;63.30
31911;BME280;18457;52.432;16.914;2023-02-19T11:08:53;100387.40;;;6.37;63.80
31911;BME280;18457;52.432;16.914;2023-02-19T11:11:33;100394.71;;;6.17;63.32
31911;BME280;18457;52.432;16.914;2023-02-19T11:14:14;100394.80;;;6.04;63.47
31911;BME280;18457;52.432;16.914;2023-02-19T11:16:49;100393.43;;;5.93;62.99
31911;BME280;18457;52.432;16.914;2023-02-19T11:19:28;100397.85;;;6.02;63.33
31911;BME280;18457;52.432;16.914;2023-02-19T11:22:16;100403.83;;;5.93;62.85
31911;BME280;18457;52.432;16.914;2023-02-19T11:24:50;100408.14;;;5.91;63.12
31911;BME280;18457;52.432;16.914;2023-02-19T11:27:28;100411.91;;;5.81;63.20
31911;BME280;18457;52.432;16.914;2023-02-19T11:30:26;100416.42;;;5.76;63.63
31911;BME280;18457;52.432;16.914;2023-02-19T11:33:28;100417.30;;;5.81;64.05
31911;BME280;18457;52.432;16.914;2023-02-19T11:36:20;100417.20;;;6.06;62.51
31911;BME280;18457;52.432;16.914;2023-02-19T11:38:55;100425.27;;;6.08;62.37
31911;BME280;18457;52.432;16.914;2023-02-19T11:41:48;100426.75;;;5.97;62.76
31911;BME280;18457;52.432;16.914;2023-02-19T11:44:33;100428.58;;;5.91;63.24
31911;BME280;18457;52.432;16.914;2023-02-19T11:47:31;100426.62;;;5.84;62.94
31911;BME280;18457;52.432;16.914;2023-02-19T11:50:17;100428.78;;;5.80;62.72
31911;BME280;18457;52.432;16.914;2023-02-19T11:53:01;100430.39;;;5.78;62.35
31911;BME280;18457;52.432;16.914;2023-02-19T11:55:50;100434.16;;;5.76;62.28
31911;BME280;18457;52.432;16.914;2023-02-19T12:01:47;100435.45;;;6.42;62.14
31911;BME280;18457;52.432;16.914;2023-02-19T12:04:55;100430.35;;;6.74;61.58
31911;BME280;18457;52.432;16.914;2023-02-19T12:07:47;100429.06;;;7.16;60.53
31911;BME280;18457;52.432;16.914;2023-02-19T12:10:26;100430.86;;;7.17;59.69
31911;BME280;18457;52.432;16.914;2023-02-19T12:13:09;100430.51;;;7.16;59.55
31911;BME280;18457;52.432;16.914;2023-02-19T12:15:56;100430.58;;;7.44;58.54
31911;BME280;18457;52.432;16.914;2023-02-19T12:19:04;100439.44;;;7.70;57.64
31911;BME280;18457;52.432;16.914;2023-02-19T12:21:52;100432.78;;;7.71;55.80
31911;BME280;18457;52.432;16.914;2023-02-19T12:24:44;100432.84;;;7.66;55.50
31911;BME280;18457;52.432;16.914;2023-02-19T12:27:27;100437.85;;;7.68;55.25
31911;BME280;18457;52.432;16.914;2023-02-19T12:30:18;100448.08;;;7.70;53.98
31911;BME280;18457;52.432;16.914;2023-02-19T12:33:13;100447.70;;;7.71;53.29
31911;BME280;18457;52.432;16.914;2023-02-19T12:36:01;100451.64;;;7.72;53.04
31911;BME280;18457;52.432;16.914;2023-02-19T12:38:38;100462.63;;;7.86;53.44
31911;BME280;18457;52.432;16.914;2023-02-19T12:41:26;100461.20;;;7.84;54.10
31911;BME280;18457;52.432;16.914;2023-02-19T12:44:04;100470.52;;;7.72;54.74
31911;BME280;18457;52.432;16.914;2023-02-19T12:46:42;100469.64;;;7.71;54.55
31911;BME280;18457;52.432;16.914;2023-02-19T12:49:21;100474.05;;;7.78;54.33
31911;BME280;18457;52.432;16.914;2023-02-19T12:51:59;100476.14;;;8.00;53.80
31911;BME280;18457;52.432;16.914;2023-02-19T12:54:36;100477.83;;;8.08;53.58
31911;BME280;18457;52.432;16.914;2023-02-19T12:57:12;100483.65;;;8.17;53.72
31911;BME280;18457;52.432;16.914;2023-02-19T12:59:49;100494.88;;;7.96;54.29
31911;BME280;18457;52.432;16.914;2023-02-19T13:02:25;100488.61;;;7.94;54.97
31911;BME280;18457;52.432;16.914;2023-02-19T13:05:03;100487.16;;;8.09;55.06
31911;BME280;18457;52.432;16.914;2023-02-19T13:07:42;100496.65;;;7.98;54.90
31911;BME280;18457;52.432;16.914;2023-02-19T13:10:26;100493.67;;;7.42;54.61
31911;BME280;18457;52.432;16.914;2023-02-19T13:13:04;100496.86;;;7.30;54.79
31911;BME280;18457;52.432;16.914;2023-02-19T13:15:39;100502.93;;;7.33;53.00
31911;BME280;18457;52.432;16.914;2023-02-19T13:18:15;100500.58;;;7.52;53.19
31911;BME280;18457;52.432;16.914;2023-02-19T13:20:49;100502.89;;;7.72;53.32
31911;BME280;18457;52.432;16.914;2023-02-19T13:23:27;100503.67;;;7.82;52.43
31911;BME280;18457;52.432;16.914;2023-02-19T13:26:30;100499.16;;;7.84;51.30
31911;BME280;18457;52.432;16.914;2023-02-19T13:29:17;100499.36;;;7.97;51.01
31911;BME280;18457;52.432;16.914;2023-02-19T13:32:05;100489.45;;;7.98;51.56
31911;BME280;18457;52.432;16.914;2023-02-19T13:34:52;100492.80;;;7.89;52.87
31911;BME280;18457;52.432;16.914;2023-02-19T13:37:26;100490.92;;;7.95;53.32
31911;BME280;18457;52.432;16.914;2023-02-19T13:40:05;100486.69;;;8.04;52.62
31911;BME280;18457;52.432;16.914;2023-02-19T13:42:54;100488.65;;;8.06;52.55
31911;BME280;18457;52.432;16.914;2023-02-19T13:45:32;100487.45;;;8.00;51.88